Time;durP1;ratioP1;P1;durP2;ratioP2;P2;SDS_P1;SDS_P2;PMS_P1;PMS_P2;Temp;Humidity;BMP_temperature;BMP_pressure;BME280_temperature;BME280_humidity;BME280_pressure;Samples;Min_cycle;Max_cycle;Signal;HPM_P1;HPM_P2
2023/07/11 00:02:00;;;;;;;7.57;3.60;;;;;;;22.63;54.44;101541.88;5093255;28;20028;-61
2023/07/11 00:04:26;;;;;;;9.27;3.42;;;;;;;22.49;55.07;101536.91;5093069;28;20425;-61
2023/07/11 00:06:52;;;;;;;4.60;3.03;;;;;;;22.38;56.06;101531.78;5093211;28;20024;-61
2023/07/11 00:09:19;;;;;;;9.48;3.40;;;;;;;22.34;56.50;101537.31;5092693;28;20470;-61
2023/07/11 00:11:44;;;;;;;10.07;3.60;;;;;;;22.21;56.50;101529.53;5092923;28;20086;-61
2023/07/11 00:14:11;;;;;;;9.90;3.67;;;;;;;22.30;56.26;101517.66;5092716;28;20032;-61
2023/07/11 00:16:37;;;;;;;6.22;3.17;;;;;;;22.23;56.95;101518.75;5092769;28;20028;-61
2023/07/11 00:19:03;;;;;;;8.18;3.80;;;;;;;22.16;57.01;101517.16;5092609;28;20052;-61
2023/07/11 00:21:29;;;;;;;11.18;3.70;;;;;;;22.15;56.88;101513.56;5058022;28;20020;-61
2023/07/11 00:24:03;;;;;;;7.80;3.50;;;;;;;22.25;56.98;101511.50;5092710;28;20024;-61
2023/07/11 00:26:34;;;;;;;11.13;3.88;;;;;;;22.09;57.66;101513.69;5092988;28;20428;-61
2023/07/11 00:29:12;;;;;;;9.10;3.22;;;;;;;22.19;57.52;101517.06;5092689;28;20032;-61
2023/07/11 00:31:37;;;;;;;9.77;3.42;;;;;;;22.07;57.73;101511.97;5092753;28;20032;-61
2023/07/11 00:34:03;;;;;;;7.65;3.55;;;;;;;22.12;58.14;101510.03;5093075;28;20036;-61
2023/07/11 00:36:28;;;;;;;10.57;3.50;;;;;;;22.07;58.05;101510.16;5096786;28;20020;-61
2023/07/11 00:38:53;;;;;;;8.48;3.50;;;;;;;22.08;58.09;101509.22;5096724;28;20067;-61
2023/07/11 00:41:19;;;;;;;11.85;3.60;;;;;;;22.03;58.23;101512.97;5096741;28;20043;-61
2023/07/11 00:43:44;;;;;;;6.57;3.40;;;;;;;22.02;58.71;101511.22;5096651;28;20131;-61
2023/07/11 00:46:19;;;;;;;8.40;3.30;;;;;;;21.90;58.73;101505.22;5096570;28;20028;-61
2023/07/11 00:48:53;;;;;;;7.40;3.40;;;;;;;21.81;58.75;101500.06;5096778;28;20468;-61
2023/07/11 00:51:31;;;;;;;7.60;3.35;;;;;;;21.73;58.57;101497.56;5096784;28;20021;-61
2023/07/11 00:53:58;;;;;;;8.98;3.80;;;;;;;21.67;59.55;101497.75;5096753;28;20426;-61
2023/07/11 00:56:27;;;;;;;10.68;3.90;;;;;;;21.68;59.39;101507.56;5096428;28;20061;-61
2023/07/11 00:58:55;;;;;;;8.57;3.63;;;;;;;21.75;59.16;101505.59;5096434;28;20024;-61
2023/07/11 01:01:20;;;;;;;8.07;3.50;;;;;;;21.73;59.16;101507.44;5096374;28;20024;-61
2023/07/11 01:03:47;;;;;;;6.25;3.60;;;;;;;21.52;60.35;101510.66;5096473;28;20185;-61
2023/07/11 01:06:16;;;;;;;7.65;3.60;;;;;;;21.37;61.58;101507.44;5096204;28;20107;-61
2023/07/11 01:08:42;;;;;;;10.95;3.65;;;;;;;21.32;61.64;101512.00;5096172;28;20045;-61
2023/07/11 01:11:08;;;;;;;10.32;3.65;;;;;;;21.21;61.52;101508.66;5096270;28;20049;-61
2023/07/11 01:13:34;;;;;;;6.93;3.47;;;;;;;21.17;62.03;101521.28;5096016;28;20110;-61
2023/07/11 01:15:59;;;;;;;11.25;3.80;;;;;;;21.16;61.70;101515.97;5096208;28;20028;-60
2023/07/11 01:18:24;;;;;;;8.38;3.75;;;;;;;21.15;61.66;101515.03;5095961;28;20106;-61
2023/07/11 01:20:50;;;;;;;10.32;3.70;;;;;;;21.21;62.19;101514.91;5096265;28;20027;-61
2023/07/11 01:23:15;;;;;;;6.45;3.72;;;;;;;21.29;62.06;101517.44;5095951;28;20020;-61
2023/07/11 01:25:41;;;;;;;8.38;3.63;;;;;;;21.35;61.63;101505.69;5095977;28;20024;-61
2023/07/11 01:28:06;;;;;;;6.53;3.60;;;;;;;21.33;61.93;101507.53;5095654;28;20027;-61
2023/07/11 01:30:32;;;;;;;7.50;3.70;;;;;;;21.29;61.58;101509.38;5096140;28;20477;-61
2023/07/11 01:32:57;;;;;;;11.10;3.67;;;;;;;21.32;61.67;101503.94;5095943;28;20043;-60
2023/07/11 01:35:23;;;;;;;6.45;3.60;;;;;;;21.31;61.86;101504.84;5096088;28;20112;-59
2023/07/11 01:37:48;;;;;;;5.85;3.67;;;;;;;21.26;62.47;101504.06;5095931;28;20103;-59
2023/07/11 01:40:14;;;;;;;7.22;3.90;;;;;;;21.22;61.91;101492.50;5095940;28;20401;-61
2023/07/11 01:42:40;;;;;;;9.30;4.13;;;;;;;21.21;61.91;101482.66;5095763;28;20492;-59
2023/07/11 01:45:08;;;;;;;10.50;4.13;;;;;;;21.14;62.33;101486.41;5095053;28;20028;-60
2023/07/11 01:47:33;;;;;;;8.82;3.80;;;;;;;21.19;62.12;101484.50;5095632;28;20039;-60
2023/07/11 01:49:58;;;;;;;9.30;3.60;;;;;;;21.18;62.35;101480.03;5095554;28;20020;-59
2023/07/11 01:52:24;;;;;;;11.43;3.63;;;;;;;21.06;63.11;101471.38;5095013;28;20077;-60
2023/07/11 01:54:50;;;;;;;8.52;3.50;;;;;;;20.97;63.87;101467.09;5094825;28;20066;-59
2023/07/11 01:57:16;;;;;;;7.20;3.38;;;;;;;21.07;63.41;101468.66;5094869;28;20095;-60
2023/07/11 01:59:42;;;;;;;6.65;3.60;;;;;;;20.93;63.47;101465.38;5094921;28;20058;-60
2023/07/11 02:02:08;;;;;;;7.90;3.65;;;;;;;20.86;63.81;101470.03;5095100;28;20035;-60
2023/07/11 02:04:35;;;;;;;6.05;3.78;;;;;;;20.75;63.98;101464.00;5094972;28;20024;-60
2023/07/11 02:07:02;;;;;;;6.85;3.60;;;;;;;20.69;64.56;101462.34;5095008;28;20078;-60
2023/07/11 02:09:28;;;;;;;6.68;3.40;;;;;;;20.83;64.20;101458.47;5094958;28;20035;-60
2023/07/11 02:11:53;;;;;;;7.13;4.05;;;;;;;20.84;63.85;101454.84;5095083;28;20035;-60
2023/07/11 02:14:20;;;;;;;6.88;3.70;;;;;;;20.79;63.86;101454.94;5094839;28;20412;-60
2023/07/11 02:16:47;;;;;;;6.95;3.60;;;;;;;20.68;64.07;101455.16;5095167;28;20089;-60
2023/07/11 02:19:14;;;;;;;8.82;4.05;;;;;;;20.58;64.62;101447.34;5094782;28;20524;-60
2023/07/11 02:21:40;;;;;;;6.53;3.97;;;;;;;20.63;64.39;101445.44;5094879;28;20020;-60
2023/07/11 02:24:08;;;;;;;7.22;3.97;;;;;;;20.57;64.23;101441.09;5094795;28;20107;-60
2023/07/11 02:26:34;;;;;;;7.65;3.97;;;;;;;20.53;64.50;101433.16;5094828;28;20031;-59
2023/07/11 02:29:00;;;;;;;8.10;3.90;;;;;;;20.52;64.56;101431.38;5094468;28;20032;-60
2023/07/11 02:31:25;;;;;;;7.07;3.83;;;;;;;20.42;64.82;101419.91;5094681;28;20046;-60
2023/07/11 02:33:51;;;;;;;6.18;4.07;;;;;;;20.39;65.08;101425.34;5094588;28;20416;-60
2023/07/11 02:36:16;;;;;;;9.10;3.70;;;;;;;20.39;64.82;101420.88;5094883;28;20028;-59
2023/07/11 02:38:42;;;;;;;7.88;4.07;;;;;;;20.37;65.40;101428.06;5094477;28;20366;-60
2023/07/11 02:41:07;;;;;;;7.45;3.90;;;;;;;20.33;65.28;101423.66;5094176;28;20031;-60
2023/07/11 02:43:33;;;;;;;5.82;3.95;;;;;;;20.36;65.25;101418.25;5094366;28;20042;-60
2023/07/11 02:45:59;;;;;;;8.10;4.05;;;;;;;20.30;65.49;101417.47;5094327;28;20020;-60
2023/07/11 02:48:25;;;;;;;7.05;3.83;;;;;;;20.14;65.59;101420.47;5076218;28;20085;-60
2023/07/11 02:50:51;;;;;;;8.55;4.55;;;;;;;20.14;66.09;101409.75;5094290;28;20032;-60
2023/07/11 02:53:16;;;;;;;9.50;4.32;;;;;;;20.10;66.19;101408.03;5094217;28;20025;-60
2023/07/11 02:55:41;;;;;;;9.82;4.00;;;;;;;20.09;65.89;101406.28;5094239;28;20557;-60
2023/07/11 02:58:07;;;;;;;7.88;3.90;;;;;;;20.09;66.15;101398.22;5093313;28;20031;-60
2023/07/11 03:00:32;;;;;;;9.02;3.83;;;;;;;20.20;66.27;101398.88;5093805;28;20469;-60
2023/07/11 03:02:58;;;;;;;8.68;4.35;;;;;;;20.32;65.99;101394.19;5094064;28;20081;-60
2023/07/11 03:05:23;;;;;;;7.78;4.38;;;;;;;20.34;65.80;101384.28;5094128;28;20059;-60
2023/07/11 03:07:49;;;;;;;8.73;4.20;;;;;;;20.35;65.52;101388.75;5093952;28;20032;-60
2023/07/11 03:10:14;;;;;;;7.82;4.18;;;;;;;20.34;65.65;101385.19;5075688;28;20485;-60
2023/07/11 03:12:40;;;;;;;6.35;4.03;;;;;;;20.42;65.82;101385.00;5094015;28;20024;-60
2023/07/11 03:15:06;;;;;;;6.95;3.90;;;;;;;20.45;65.58;101379.56;5075553;28;20028;-60
2023/07/11 03:17:32;;;;;;;7.78;4.40;;;;;;;20.39;65.55;101377.03;5093557;28;20047;-60
2023/07/11 03:19:57;;;;;;;9.85;5.00;;;;;;;20.40;65.31;101365.38;5093601;28;20035;-60
2023/07/11 03:22:22;;;;;;;7.32;4.10;;;;;;;20.36;65.75;101374.41;5093582;28;20024;-60
2023/07/11 03:24:48;;;;;;;9.30;4.72;;;;;;;20.30;66.02;101367.38;5075751;28;20016;-60
2023/07/11 03:27:13;;;;;;;9.90;4.50;;;;;;;20.30;65.91;101364.69;5093465;28;20024;-60
2023/07/11 03:29:38;;;;;;;9.15;4.40;;;;;;;20.26;66.26;101360.31;5093621;28;20035;-60
2023/07/11 03:32:05;;;;;;;7.78;4.30;;;;;;;20.36;66.33;101358.31;5093821;28;20043;-59
2023/07/11 03:34:31;;;;;;;9.32;4.60;;;;;;;20.27;66.39;101360.25;5093298;28;20031;-60
2023/07/11 03:36:57;;;;;;;10.43;4.65;;;;;;;20.26;66.51;101360.31;5093134;28;20016;-60
2023/07/11 03:39:23;;;;;;;10.98;4.43;;;;;;;20.16;66.83;101356.03;5092963;28;20039;-60
2023/07/11 03:41:49;;;;;;;7.50;4.70;;;;;;;20.10;67.03;101358.84;5092615;28;20046;-59
2023/07/11 03:44:14;;;;;;;9.23;4.22;;;;;;;20.21;66.49;101360.41;5092546;28;20436;-59
2023/07/11 03:46:40;;;;;;;11.10;4.78;;;;;;;20.12;66.68;101367.75;5092594;28;20554;-60
2023/07/11 03:49:06;;;;;;;10.23;4.65;;;;;;;20.20;66.43;101366.66;5092774;28;20024;-59
2023/07/11 03:51:31;;;;;;;10.80;4.63;;;;;;;20.08;66.89;101366.91;5092655;28;20035;-60
2023/07/11 03:53:57;;;;;;;11.48;4.45;;;;;;;20.17;66.92;101355.09;5092795;28;20458;-60
2023/07/11 03:56:23;;;;;;;7.47;4.15;;;;;;;20.17;66.96;101364.06;5092316;28;20347;-60
2023/07/11 03:58:49;;;;;;;9.77;4.97;;;;;;;20.17;66.99;101355.09;5092556;28;20024;-60
2023/07/11 04:01:14;;;;;;;8.18;4.30;;;;;;;20.23;66.93;101355.88;5092229;28;20042;-60
2023/07/11 04:03:40;;;;;;;8.82;4.88;;;;;;;20.11;66.92;101357.94;5092618;28;20103;-60
2023/07/11 04:06:07;;;;;;;10.95;4.80;;;;;;;20.12;66.97;101351.66;5092702;28;20415;-60
2023/07/11 04:08:32;;;;;;;11.20;4.65;;;;;;;20.16;67.17;101346.19;5092073;28;20024;-60
2023/07/11 04:11:01;;;;;;;9.48;4.57;;;;;;;20.06;67.13;101351.78;5092369;28;20023;-60
2023/07/11 04:13:27;;;;;;;9.77;4.72;;;;;;;20.07;67.13;101342.81;5092054;28;20070;-60
2023/07/11 04:15:53;;;;;;;11.02;4.78;;;;;;;20.13;67.00;101345.38;5092325;28;20032;-60
2023/07/11 04:18:18;;;;;;;9.25;4.72;;;;;;;20.11;67.28;101349.88;5091999;28;20048;-60
2023/07/11 04:20:45;;;;;;;9.90;4.68;;;;;;;20.01;67.25;101349.19;5092198;28;20069;-60
2023/07/11 04:23:11;;;;;;;7.57;4.40;;;;;;;20.04;67.51;101343.75;5092248;28;20496;-60
2023/07/11 04:25:37;;;;;;;9.77;4.32;;;;;;;20.15;67.09;101339.06;5092147;28;20437;-60
2023/07/11 04:28:05;;;;;;;8.93;4.30;;;;;;;20.25;66.93;101335.25;5092072;28;20105;-60
2023/07/11 04:30:31;;;;;;;7.88;4.82;;;;;;;20.09;67.40;101339.19;5092110;28;20024;-60
2023/07/11 04:32:56;;;;;;;10.30;4.55;;;;;;;20.13;67.09;101334.66;5092413;28;20031;-60
2023/07/11 04:35:22;;;;;;;9.63;4.70;;;;;;;20.15;67.14;101319.38;5092050;28;20047;-60
2023/07/11 04:37:47;;;;;;;10.15;4.35;;;;;;;20.15;67.52;101322.94;5092259;28;20446;-60
2023/07/11 04:40:13;;;;;;;9.63;4.53;;;;;;;20.23;67.12;101320.13;5091931;28;20040;-60
2023/07/11 04:42:38;;;;;;;7.85;4.60;;;;;;;20.29;67.02;101325.31;5092094;28;20113;-60
2023/07/11 04:45:05;;;;;;;8.32;4.80;;;;;;;20.23;67.03;101321.00;5092180;28;20111;-60
2023/07/11 04:47:31;;;;;;;7.60;4.25;;;;;;;20.31;66.79;101315.47;5091942;28;20040;-60
2023/07/11 04:49:56;;;;;;;7.90;4.45;;;;;;;20.34;66.97;101311.81;5092028;28;20032;-60
2023/07/11 04:52:22;;;;;;;8.45;4.10;;;;;;;20.46;66.68;101314.22;5091987;28;20473;-60
2023/07/11 04:54:47;;;;;;;8.20;4.45;;;;;;;20.44;66.21;101310.69;5092280;28;20118;-60
2023/07/11 04:57:12;;;;;;;7.78;4.55;;;;;;;20.36;66.95;101312.69;5091693;28;20050;-59
2023/07/11 04:59:38;;;;;;;7.80;4.55;;;;;;;20.36;66.71;101313.56;5091847;28;20028;-59
2023/07/11 05:02:03;;;;;;;6.53;4.15;;;;;;;20.44;66.39;101302.66;5091783;28;20467;-60
2023/07/11 05:04:29;;;;;;;10.77;4.85;;;;;;;20.40;67.27;101301.84;5091782;28;20043;-60
2023/07/11 05:06:54;;;;;;;8.43;4.43;;;;;;;20.37;67.13;101295.66;5091615;28;20028;-60
2023/07/11 05:09:19;;;;;;;10.82;4.55;;;;;;;20.48;67.71;101305.25;5092091;28;20024;-60
2023/07/11 05:11:45;;;;;;;12.88;4.60;;;;;;;20.59;67.31;101296.94;5091757;28;20042;-60
2023/07/11 05:14:10;;;;;;;8.85;4.40;;;;;;;20.74;66.48;101290.34;5091622;28;20442;-60
2023/07/11 05:16:36;;;;;;;10.38;4.40;;;;;;;20.79;66.55;101299.16;5091783;28;20028;-60
2023/07/11 05:19:03;;;;;;;7.53;4.40;;;;;;;20.80;65.67;101287.50;5091518;28;20040;-59
2023/07/11 05:21:28;;;;;;;11.00;4.38;;;;;;;20.84;65.97;101291.88;5094572;28;20032;-60
2023/07/11 05:23:57;;;;;;;6.13;3.75;;;;;;;20.87;65.92;101283.75;5095329;28;20091;-60
2023/07/11 05:26:22;;;;;;;10.93;3.90;;;;;;;20.93;65.28;101280.88;5095527;28;20131;-60
2023/07/11 05:28:48;;;;;;;7.15;4.00;;;;;;;21.08;66.00;101276.06;5095154;28;20107;-60
2023/07/11 05:31:13;;;;;;;13.02;4.30;;;;;;;21.09;64.50;101276.00;5095162;28;20093;-59
2023/07/11 05:33:39;;;;;;;7.53;3.90;;;;;;;21.16;65.07;101274.06;5095145;28;20024;-60
2023/07/11 05:36:33;;;;;;;10.88;3.92;;;;;;;21.38;64.19;101272.59;5095021;28;20434;-60
2023/07/11 05:39:06;;;;;;;8.18;3.85;;;;;;;21.53;63.39;101271.28;5095051;28;20032;-60
2023/07/11 05:41:33;;;;;;;9.65;3.70;;;;;;;21.73;62.00;101270.72;5094835;28;20028;-60
2023/07/11 05:43:59;;;;;;;8.20;3.58;;;;;;;21.79;60.34;101261.59;5094583;28;20020;-60
2023/07/11 05:46:26;;;;;;;6.13;3.40;;;;;;;21.91;60.90;101270.19;5095006;28;20025;-60
2023/07/11 05:48:53;;;;;;;9.30;3.53;;;;;;;22.04;60.12;101273.38;5095032;28;20024;-60
2023/07/11 05:51:19;;;;;;;16.73;3.55;;;;;;;22.11;58.86;101264.22;5094813;28;20028;-60
2023/07/11 05:53:45;;;;;;;8.48;3.00;;;;;;;22.30;59.77;101266.38;5094974;28;20060;-59
2023/07/11 05:56:11;;;;;;;10.38;3.13;;;;;;;22.38;58.30;101257.13;5094761;28;20051;-60
2023/07/11 05:58:37;;;;;;;7.45;3.30;;;;;;;22.54;57.73;101262.91;5076398;28;20032;-60
2023/07/11 06:01:03;;;;;;;7.80;3.30;;;;;;;22.64;58.12;101261.66;5094639;28;20111;-59
2023/07/11 06:03:30;;;;;;;9.50;3.40;;;;;;;22.73;56.57;101257.78;5094573;28;20070;-60
2023/07/11 06:06:02;;;;;;;7.78;3.20;;;;;;;22.82;56.74;101253.91;5094542;28;20107;-60
2023/07/11 06:08:29;;;;;;;7.40;3.30;;;;;;;22.93;55.70;101241.88;5094565;28;20482;-60
2023/07/11 06:11:00;;;;;;;7.25;3.08;;;;;;;23.01;55.68;101241.59;5094499;28;20504;-60
2023/07/11 06:13:28;;;;;;;5.45;3.10;;;;;;;23.17;55.47;101242.84;5094732;28;20032;-60
2023/07/11 06:16:05;;;;;;;7.57;3.35;;;;;;;23.28;55.29;101245.13;5094456;28;20020;-60
2023/07/11 06:18:37;;;;;;;11.15;3.28;;;;;;;23.41;55.36;101243.75;5094226;28;20036;-60
2023/07/11 06:21:03;;;;;;;10.88;3.50;;;;;;;23.47;54.05;101243.56;5094278;28;20032;-60
2023/07/11 06:23:29;;;;;;;7.28;3.22;;;;;;;23.54;54.83;101238.81;5094254;28;20115;-60
2023/07/11 06:25:55;;;;;;;8.52;3.38;;;;;;;23.63;54.23;101249.25;5094112;28;20056;-60
2023/07/11 06:28:20;;;;;;;6.43;3.13;;;;;;;23.72;54.24;101231.88;5094053;28;20028;-60
2023/07/11 06:30:46;;;;;;;10.27;3.30;;;;;;;23.74;53.01;101235.41;5093887;28;20020;-60
2023/07/11 06:33:12;;;;;;;8.13;3.40;;;;;;;23.93;53.41;101240.97;5094153;28;20032;-60
2023/07/11 06:35:40;;;;;;;7.38;3.50;;;;;;;23.91;53.58;101232.94;5094084;28;20020;-60
2023/07/11 06:38:06;;;;;;;8.65;3.20;;;;;;;24.04;53.29;101230.66;5094221;28;20035;-60
2023/07/11 06:40:32;;;;;;;8.45;2.95;;;;;;;24.22;52.50;101237.13;5093905;28;20020;-60
2023/07/11 06:42:57;;;;;;;8.75;3.20;;;;;;;24.27;52.06;101235.13;5093906;28;20054;-58
2023/07/11 06:45:23;;;;;;;9.38;3.30;;;;;;;24.36;51.64;101233.88;5093884;28;20028;-58
2023/07/11 06:47:49;;;;;;;11.10;3.08;;;;;;;24.54;51.19;101230.47;5094131;28;20024;-58
2023/07/11 06:50:14;;;;;;;6.28;3.10;;;;;;;24.74;51.44;101224.22;5093862;28;20028;-59
2023/07/11 06:52:40;;;;;;;5.97;3.10;;;;;;;24.95;50.96;101238.66;5093951;28;20029;-57
2023/07/11 06:55:06;;;;;;;12.05;3.35;;;;;;;25.05;49.09;101222.91;5093845;28;20028;-58
2023/07/11 06:57:32;;;;;;;8.63;3.38;;;;;;;25.01;49.63;101227.59;5093334;28;20058;-57
2023/07/11 06:59:57;;;;;;;10.35;3.40;;;;;;;25.07;50.33;101226.44;5075567;28;20028;-58
2023/07/11 07:02:22;;;;;;;7.72;3.28;;;;;;;25.36;49.62;101212.53;5093386;28;20483;-58
2023/07/11 07:04:48;;;;;;;10.48;3.40;;;;;;;25.66;49.17;101220.22;5093529;28;20024;-59
2023/07/11 07:07:13;;;;;;;10.10;3.20;;;;;;;25.86;47.27;101222.88;5093735;28;20493;-59
2023/07/11 07:09:38;;;;;;;11.45;3.03;;;;;;;26.03;47.24;101227.50;5075329;28;20047;-59
2023/07/11 07:12:04;;;;;;;10.27;3.13;;;;;;;26.14;46.04;101229.72;5093367;28;20058;-58
2023/07/11 07:14:30;;;;;;;7.63;2.78;;;;;;;26.31;46.30;101231.59;5093319;28;20031;-57
2023/07/11 07:16:55;;;;;;;6.50;3.05;;;;;;;26.42;44.74;101230.13;5093303;28;20039;-59
2023/07/11 07:19:21;;;;;;;12.45;3.20;;;;;;;26.58;44.09;101227.56;5093114;28;20052;-57
2023/07/11 07:21:46;;;;;;;9.95;2.80;;;;;;;26.61;45.27;101227.41;5093303;28;20081;-58
2023/07/11 07:24:11;;;;;;;8.73;3.17;;;;;;;26.74;44.10;101227.69;5093260;28;20036;-58
2023/07/11 07:26:37;;;;;;;7.10;3.03;;;;;;;26.94;43.41;101222.13;5075198;28;20536;-57
2023/07/11 07:29:03;;;;;;;7.85;2.97;;;;;;;27.12;43.07;101224.88;5074628;28;20023;-58
2023/07/11 07:31:29;;;;;;;12.63;3.50;;;;;;;27.24;42.71;101223.31;5093107;28;20028;-58
2023/07/11 07:33:55;;;;;;;9.23;2.90;;;;;;;27.50;41.80;101217.41;5092955;28;20481;-59
2023/07/11 07:36:20;;;;;;;9.55;3.00;;;;;;;27.50;41.51;101213.81;5092877;28;20035;-59
2023/07/11 07:38:47;;;;;;;6.60;2.65;;;;;;;27.51;41.18;101210.13;5093177;28;20035;-58
2023/07/11 07:41:13;;;;;;;6.65;2.92;;;;;;;27.53;40.45;101209.06;5092795;28;20078;-58
2023/07/11 07:43:44;;;;;;;5.68;2.70;;;;;;;27.70;40.77;101203.59;5092384;28;20052;-57
2023/07/11 07:46:15;;;;;;;5.53;2.90;;;;;;;27.84;39.70;101196.56;5093079;28;20028;-59
2023/07/11 07:48:41;;;;;;;12.27;2.92;;;;;;;28.09;39.55;101196.91;5074914;28;20025;-59
2023/07/11 07:51:13;;;;;;;5.80;3.20;;;;;;;28.29;39.34;101190.34;5072460;28;20078;-59
2023/07/11 07:53:38;;;;;;;;;;;;;;;28.55;40.68;101188.84;5055089;28;20029;-59
2023/07/11 07:56:30;;;;;;;9.32;2.75;;;;;;;28.72;38.60;101185.13;5072424;28;19934;-58
2023/07/11 07:58:55;;;;;;;8.30;2.72;;;;;;;28.93;38.97;101189.28;5067575;28;20071;-58
2023/07/11 08:01:21;;;;;;;8.63;2.75;;;;;;;28.94;37.95;101201.91;5072358;28;20052;-58
2023/07/11 08:03:47;;;;;;;6.15;2.50;;;;;;;28.92;38.19;101186.66;5072373;28;20027;-59
2023/07/11 08:06:14;;;;;;;7.53;2.83;;;;;;;29.00;38.56;101187.13;5072489;28;20020;-59
2023/07/11 08:08:40;;;;;;;7.90;3.00;;;;;;;29.09;37.06;101185.69;5072512;28;20016;-58
2023/07/11 08:11:06;;;;;;;9.50;2.70;;;;;;;29.21;37.43;101187.66;5072568;28;20039;-58
2023/07/11 08:13:34;;;;;;;7.00;2.80;;;;;;;28.74;37.28;101185.06;5072329;28;20085;-58
2023/07/11 08:16:00;;;;;;;7.20;2.65;;;;;;;28.65;37.78;101179.22;5054206;28;20032;-58
2023/07/11 08:18:26;;;;;;;6.03;2.80;;;;;;;28.70;37.56;101178.94;5071855;28;20055;-58
2023/07/11 08:20:51;;;;;;;7.43;2.60;;;;;;;28.84;37.79;101176.25;5072524;28;20025;-58
2023/07/11 08:23:17;;;;;;;7.75;2.63;;;;;;;29.00;36.99;101181.69;5071853;28;20036;-60
2023/07/11 08:25:42;;;;;;;9.93;2.63;;;;;;;29.30;37.15;101175.31;5072210;28;20024;-59
2023/07/11 08:28:08;;;;;;;10.85;2.70;;;;;;;29.51;36.83;101178.50;5054016;28;20470;-58
2023/07/11 08:30:39;;;;;;;5.93;2.60;;;;;;;29.61;35.72;101182.44;5072122;28;20226;-59
2023/07/11 08:33:05;;;;;;;7.20;2.50;;;;;;;29.69;36.10;101178.25;5072169;28;20501;-58
2023/07/11 08:35:31;;;;;;;8.18;2.80;;;;;;;29.89;35.49;101179.72;5054372;28;20033;-58
2023/07/11 08:37:56;;;;;;;7.18;2.70;;;;;;;30.00;35.26;101172.66;5072425;28;20078;-58
2023/07/11 08:40:27;;;;;;;7.03;2.45;;;;;;;29.81;36.16;101173.00;5072085;28;20478;-59
2023/07/11 08:42:52;;;;;;;5.50;2.55;;;;;;;29.59;36.28;101165.31;5072158;28;20500;-59
2023/07/11 08:45:30;;;;;;;10.52;2.90;;;;;;;29.68;36.72;101164.75;5090174;28;20029;-59
2023/07/11 08:48:14;;;;;;;9.80;2.72;;;;;;;29.98;36.64;101167.34;5092339;28;20036;-58
2023/07/11 08:50:47;;;;;;;8.60;2.90;;;;;;;30.28;36.36;101172.63;5092175;28;20477;-59
2023/07/11 08:53:19;;;;;;;7.07;2.58;;;;;;;30.40;35.57;101168.19;5092325;28;20028;-59
2023/07/11 08:55:51;;;;;;;6.70;2.60;;;;;;;30.37;35.56;101169.28;5094028;28;20032;-59
2023/07/11 08:58:17;;;;;;;6.90;2.83;;;;;;;30.32;35.03;101157.81;5077169;28;20024;-58
2023/07/11 09:00:46;;;;;;;9.07;2.80;;;;;;;30.47;35.93;101160.50;5096076;28;20054;-58
2023/07/11 09:03:30;;;;;;;8.43;2.58;;;;;;;30.59;35.28;101149.63;5095854;28;20028;-58
2023/07/11 09:06:06;;;;;;;9.07;2.90;;;;;;;30.46;35.27;101151.44;5095988;28;20096;-57
2023/07/11 09:08:32;;;;;;;12.10;2.70;;;;;;;30.32;35.14;101149.66;5090087;28;20021;-57
2023/07/11 09:11:07;;;;;;;5.85;2.50;;;;;;;30.43;34.79;101149.78;5074853;28;20024;-58
2023/07/11 09:13:38;;;;;;;8.02;2.80;;;;;;;30.24;35.85;101149.28;5072916;28;20017;-59
2023/07/11 09:16:15;;;;;;;8.77;2.72;;;;;;;30.02;36.15;101143.44;5075296;28;20016;-58
2023/07/11 09:18:58;;;;;;;7.22;2.70;;;;;;;30.08;35.85;101143.94;5074527;28;20045;-58
2023/07/11 09:21:30;;;;;;;8.73;2.60;;;;;;;30.27;37.45;101140.00;5072847;28;20032;-58
2023/07/11 09:24:28;;;;;;;9.75;2.85;;;;;;;30.64;36.94;101143.84;5074833;28;20127;-58
2023/07/11 09:26:54;;;;;;;8.40;2.78;;;;;;;31.26;35.93;101134.97;5074629;28;20025;-59
2023/07/11 09:29:20;;;;;;;8.77;3.00;;;;;;;31.51;33.93;101124.06;5074844;28;20446;-58
2023/07/11 09:31:59;;;;;;;11.88;2.85;;;;;;;31.58;34.59;101127.25;5075171;28;20032;-59
2023/07/11 09:34:34;;;;;;;11.50;3.00;;;;;;;31.12;34.17;101128.66;5075212;28;20035;-57
2023/07/11 09:37:12;;;;;;;10.95;3.08;;;;;;;31.22;34.75;101145.28;5075312;28;20028;-58
2023/07/11 09:39:47;;;;;;;6.40;2.75;;;;;;;31.16;33.82;101132.91;5074875;28;20074;-58
2023/07/11 09:42:43;;;;;;;10.00;3.05;;;;;;;31.07;34.82;101132.69;5075107;28;20036;-58
2023/07/11 09:45:14;;;;;;;6.63;2.90;;;;;;;31.17;33.15;101136.50;5056724;28;20112;-57
2023/07/11 09:47:41;;;;;;;8.48;2.88;;;;;;;30.98;33.70;101142.41;5074963;28;20032;-58
2023/07/11 09:50:28;;;;;;;6.38;2.80;;;;;;;31.17;34.35;101131.91;5074750;28;20035;-58
2023/07/11 09:52:58;;;;;;;6.57;2.88;;;;;;;31.19;32.95;101131.81;5074833;28;20071;-59
2023/07/11 09:55:28;;;;;;;6.10;2.95;;;;;;;30.96;32.58;101129.84;5074561;28;20429;-60
2023/07/11 09:57:54;;;;;;;6.03;2.97;;;;;;;31.26;33.13;101124.94;5074732;28;20033;-58
2023/07/11 10:00:20;;;;;;;6.18;2.75;;;;;;;31.32;33.26;101124.53;5074534;28;20393;-58
2023/07/11 10:02:46;;;;;;;7.93;2.85;;;;;;;31.50;32.82;101119.59;5074482;28;20025;-59
2023/07/11 10:05:22;;;;;;;8.15;3.20;;;;;;;31.33;33.35;101115.34;5074415;28;20482;-58
2023/07/11 10:08:13;;;;;;;8.00;3.17;;;;;;;30.64;34.14;101116.56;5074346;28;20078;-59
2023/07/11 10:10:45;;;;;;;8.20;3.20;;;;;;;30.78;34.78;101119.22;5072234;28;20024;-58
2023/07/11 10:13:13;;;;;;;8.68;3.17;;;;;;;31.04;33.73;101122.84;5074631;28;20063;-59
2023/07/11 10:15:40;;;;;;;8.85;3.60;;;;;;;30.74;34.46;101119.56;5074304;28;20481;-59
2023/07/11 10:18:16;;;;;;;7.25;3.00;;;;;;;30.68;35.39;101109.91;5073874;28;20404;-57
2023/07/11 10:20:51;;;;;;;6.10;2.97;;;;;;;30.96;35.38;101103.41;5074105;28;20028;-58
2023/07/11 10:23:24;;;;;;;7.00;2.78;;;;;;;31.48;34.83;101105.19;5074007;28;20028;-58
2023/07/11 10:26:08;;;;;;;10.13;3.30;;;;;;;31.83;34.56;101105.34;5074077;28;20029;-58
2023/07/11 10:28:39;;;;;;;9.15;3.10;;;;;;;32.08;33.27;101095.31;5073951;28;20119;-59
2023/07/11 10:31:12;;;;;;;6.72;3.20;;;;;;;32.48;33.43;101098.63;5074195;28;20044;-58
2023/07/11 10:34:19;;;;;;;7.82;3.08;;;;;;;32.74;32.82;101106.66;5074078;28;20032;-59
2023/07/11 10:36:50;;;;;;;9.13;3.08;;;;;;;32.24;32.53;101098.59;5063658;28;20055;-57
2023/07/11 10:39:19;;;;;;;11.38;3.30;;;;;;;32.05;32.28;101087.34;5056023;28;20028;-58
2023/07/11 10:41:59;;;;;;;7.95;2.78;;;;;;;31.68;33.54;101106.44;5073687;28;20518;-58
2023/07/11 10:44:32;;;;;;;6.88;2.97;;;;;;;31.31;34.19;101094.63;5073714;28;20028;-58
2023/07/11 10:46:58;;;;;;;10.77;2.95;;;;;;;31.53;34.03;101075.66;5073561;28;20458;-59
2023/07/11 10:49:29;;;;;;;12.18;3.50;;;;;;;32.02;32.78;101065.69;5073783;28;20054;-59
2023/07/11 10:52:19;;;;;;;9.60;3.45;;;;;;;32.15;31.62;101070.09;5073806;28;20029;-57
2023/07/11 10:55:01;;;;;;;8.07;3.00;;;;;;;32.21;33.02;101076.97;5073763;28;20041;-59
2023/07/11 10:57:51;;;;;;;11.80;3.05;;;;;;;32.44;32.51;101072.50;5073491;28;20429;-59
2023/07/11 11:00:25;;;;;;;6.43;2.95;;;;;;;32.53;31.97;101070.91;5073470;28;20025;-58
2023/07/11 11:03:38;;;;;;;9.02;3.10;;;;;;;32.75;32.42;101065.47;5055545;28;20025;-59
2023/07/11 11:06:35;;;;;;;12.90;3.20;;;;;;;32.64;32.11;101060.88;5036785;28;20041;-58
2023/07/11 11:09:35;;;;;;;7.63;3.22;;;;;;;32.28;31.49;101058.22;5073381;28;20036;-58
2023/07/11 11:12:18;;;;;;;8.90;3.03;;;;;;;32.37;31.85;101063.84;5073428;28;20036;-59
2023/07/11 11:15:10;;;;;;;7.15;2.88;;;;;;;32.63;31.37;101055.50;5073089;28;20028;-57
2023/07/11 11:17:46;;;;;;;;;;;;;;;32.79;31.84;101063.38;5034732;28;20032;-59
2023/07/11 11:20:22;;;;;;;9.07;2.95;;;;;;;32.52;31.52;101059.09;5073006;28;20211;-58
2023/07/11 11:23:08;;;;;;;6.80;2.90;;;;;;;32.50;31.57;101047.38;5072822;28;20029;-57
2023/07/11 11:25:57;;;;;;;9.70;2.88;;;;;;;32.62;32.02;101051.88;5072987;28;20024;-58
2023/07/11 11:28:51;;;;;;;6.53;2.92;;;;;;;32.83;31.49;101038.38;5072769;28;20474;-58
2023/07/11 11:31:27;;;;;;;11.45;2.95;;;;;;;32.90;30.65;101047.84;5072763;28;20056;-58
2023/07/11 11:34:28;;;;;;;10.63;3.28;;;;;;;32.80;31.35;101043.22;5073113;28;20078;-59